Terminal Aerodrome Forecast
Issued by NWS

Home | Current Version | Previous Version | Graphics & Text | Print | Product List | Glossary On
Versions: 1 2 3 4 5 6 7 8 9 10 11 12 13 14 15
000
FTUS43 KGRB 171134
TAFAUW
TAF
KAUW 171134Z 1712/1812 28009KT P6SM SCT005 OVC035
      TEMPO 1712/1713 2SM -SHRA BKN005 OVC020
     FM171300 29008KT P6SM SCT007 BKN040
      TEMPO 1713/1714 BKN007
     FM171600 29009G15KT P6SM SCT250
     FM172200 30004KT P6SM SKC
     FM180800 01003KT P6SM SCT100=

USA.gov is the U.S. government's official web portal to all federal, state and local government web resources and services.